Time;durP1;ratioP1;P1;durP2;ratioP2;P2;SDS_P1;SDS_P2;PMS_P1;PMS_P2;Temp;Humidity;BMP_temperature;BMP_pressure;BME280_temperature;BME280_humidity;BME280_pressure;Samples;Min_cycle;Max_cycle;Signal;HPM_P1;HPM_P2
2021/08/28 00:01:22;;;;;;;17.88;5.25;;;;;;;14.16;100.00;102225.63;5018207;28;20213;-66
2021/08/28 00:03:52;;;;;;;22.98;8.23;;;;;;;14.12;100.00;102219.44;5019218;28;20110;-67
2021/08/28 00:06:19;;;;;;;19.17;6.68;;;;;;;14.06;100.00;102219.59;5019578;28;20498;-66
2021/08/28 00:08:47;;;;;;;18.83;6.43;;;;;;;14.05;100.00;102225.91;5020703;28;20065;-66
2021/08/28 00:11:15;;;;;;;13.93;4.38;;;;;;;14.03;100.00;102225.06;5017903;28;20041;-66
2021/08/28 00:13:43;;;;;;;11.40;5.28;;;;;;;13.97;100.00;102226.06;5017373;28;20065;-66
2021/08/28 00:16:11;;;;;;;10.07;4.50;;;;;;;13.93;100.00;102219.03;5017172;28;20084;-68
2021/08/28 00:18:40;;;;;;;14.20;5.45;;;;;;;13.85;100.00;102218.31;5018043;28;20073;-69
2021/08/28 00:21:09;;;;;;;12.32;4.38;;;;;;;13.82;100.00;102215.72;5021082;28;20231;-70
2021/08/28 00:23:37;;;;;;;13.07;4.72;;;;;;;13.78;100.00;102220.25;5016334;28;20069;-68
2021/08/28 00:26:05;;;;;;;15.18;4.85;;;;;;;13.70;100.00;102218.69;5017246;28;20048;-68
2021/08/28 00:28:32;;;;;;;15.43;5.88;;;;;;;13.66;100.00;102217.00;5019892;28;20535;-68
2021/08/28 00:31:01;;;;;;;14.00;5.00;;;;;;;13.66;100.00;102222.38;5018659;28;20120;-68
2021/08/28 00:33:28;;;;;;;13.65;5.10;;;;;;;13.60;100.00;102216.22;5019170;28;20061;-68
2021/08/28 00:35:56;;;;;;;13.05;5.65;;;;;;;13.56;100.00;102217.19;5015837;28;20061;-68
2021/08/28 00:38:25;;;;;;;16.88;5.82;;;;;;;13.52;100.00;102211.94;5017730;28;20372;-68
2021/08/28 00:40:56;;;;;;;14.48;5.70;;;;;;;13.48;100.00;102211.13;5018634;28;20057;-67
2021/08/28 00:43:25;;;;;;;13.65;5.80;;;;;;;13.46;100.00;102210.28;5020529;28;20060;-67
2021/08/28 00:45:53;;;;;;;17.67;7.15;;;;;;;13.42;100.00;102212.16;5019555;28;20050;-67
2021/08/28 00:48:21;;;;;;;18.45;6.60;;;;;;;13.42;100.00;102214.84;5017868;28;20061;-67
2021/08/28 00:50:49;;;;;;;21.52;6.93;;;;;;;13.44;100.00;102210.31;5019632;28;20236;-69
2021/08/28 00:53:17;;;;;;;26.92;11.07;;;;;;;13.44;100.00;102213.00;5016370;28;20491;-68
2021/08/28 00:55:49;;;;;;;19.50;6.20;;;;;;;13.50;100.00;102217.34;5020124;28;20088;-68
2021/08/28 00:58:17;;;;;;;15.25;6.35;;;;;;;13.55;100.00;102212.78;5018665;28;20061;-67
2021/08/28 01:00:48;;;;;;;16.65;6.50;;;;;;;13.56;100.00;102214.50;5017899;28;20501;-67
2021/08/28 01:03:21;;;;;;;17.27;5.63;;;;;;;13.58;100.00;102206.44;5020792;28;20445;-67
2021/08/28 01:05:56;;;;;;;18.10;6.47;;;;;;;13.59;100.00;102210.91;5015154;28;20153;-67
2021/08/28 01:08:29;;;;;;;18.25;7.18;;;;;;;13.61;100.00;102217.09;5018774;28;20100;-67
2021/08/28 01:11:10;;;;;;;19.10;7.30;;;;;;;13.65;100.00;102213.41;5016276;28;20117;-67
2021/08/28 01:13:40;;;;;;;22.75;7.45;;;;;;;13.69;100.00;102215.13;5018620;28;20088;-67
2021/08/28 01:16:12;;;;;;;18.05;6.78;;;;;;;13.76;100.00;102218.56;5017861;28;20152;-67
2021/08/28 01:18:42;;;;;;;17.02;6.45;;;;;;;13.81;100.00;102208.59;5015705;28;20072;-67
2021/08/28 01:21:18;;;;;;;22.95;6.95;;;;;;;13.94;100.00;102215.41;5014867;28;20061;-67
2021/08/28 01:23:48;;;;;;;18.17;6.57;;;;;;;13.98;100.00;102211.75;5017463;28;20069;-67
2021/08/28 01:26:21;;;;;;;14.50;6.38;;;;;;;14.08;100.00;102206.13;5017029;28;20069;-67
2021/08/28 01:28:56;;;;;;;14.80;6.40;;;;;;;14.10;100.00;102199.81;5019168;28;21297;-69
2021/08/28 01:31:26;;;;;;;19.80;6.32;;;;;;;14.22;100.00;102198.63;5013854;28;20077;-69
2021/08/28 01:33:55;;;;;;;21.48;6.10;;;;;;;14.28;100.00;102198.44;5015707;28;20057;-68
2021/08/28 01:36:24;;;;;;;13.48;5.72;;;;;;;14.41;100.00;102198.16;5016388;28;20095;-68
2021/08/28 01:38:53;;;;;;;17.23;6.90;;;;;;;14.43;100.00;102196.31;5017881;28;20065;-68
2021/08/28 01:41:21;;;;;;;17.00;5.53;;;;;;;14.51;100.00;102195.16;5014326;28;20131;-68
2021/08/28 01:43:50;;;;;;;18.10;6.90;;;;;;;14.54;100.00;102202.25;5016760;28;20062;-68
2021/08/28 01:46:18;;;;;;;20.25;8.90;;;;;;;14.63;100.00;102199.38;5016409;28;20069;-68
2021/08/28 01:48:48;;;;;;;21.55;6.97;;;;;;;14.68;100.00;102200.13;5017842;28;20061;-68
2021/08/28 01:51:16;;;;;;;15.80;6.53;;;;;;;14.69;100.00;102204.56;5014196;28;20061;-68
2021/08/28 01:53:44;;;;;;;23.05;7.28;;;;;;;14.69;100.00;102206.34;5017965;28;20115;-68
2021/08/28 01:56:12;;;;;;;15.70;6.13;;;;;;;14.69;100.00;102201.91;5020176;28;20065;-68
2021/08/28 01:58:41;;;;;;;17.13;5.75;;;;;;;14.74;100.00;102205.34;5020690;28;20072;-70
2021/08/28 02:01:08;;;;;;;14.85;6.43;;;;;;;14.71;100.00;102201.81;5018408;28;20108;-68
2021/08/28 02:03:37;;;;;;;15.65;6.35;;;;;;;14.70;100.00;102200.94;5023551;28;20155;-68
2021/08/28 02:06:12;;;;;;;17.05;5.28;;;;;;;14.72;100.00;102198.22;5021165;28;20131;-68
2021/08/28 02:08:46;;;;;;;13.93;5.18;;;;;;;14.69;100.00;102201.91;5022478;28;20066;-69
2021/08/28 02:11:18;;;;;;;15.27;6.65;;;;;;;14.75;100.00;102199.00;5016667;28;20088;-69
2021/08/28 02:13:54;;;;;;;18.08;6.30;;;;;;;14.75;100.00;102199.00;5022240;28;20061;-70
2021/08/28 02:16:26;;;;;;;17.20;6.47;;;;;;;14.79;100.00;102205.19;5020156;28;20482;-68
2021/08/28 02:18:59;;;;;;;17.50;6.82;;;;;;;14.78;100.00;102205.22;5020901;28;20081;-68
2021/08/28 02:21:32;;;;;;;21.33;7.25;;;;;;;14.81;100.00;102215.88;5021715;28;20085;-68
2021/08/28 02:24:04;;;;;;;15.35;7.45;;;;;;;14.80;100.00;102212.31;5020425;28;20045;-68
2021/08/28 02:26:39;;;;;;;14.32;5.68;;;;;;;14.82;100.00;102214.97;5021624;28;20068;-68
2021/08/28 02:29:18;;;;;;;22.63;7.57;;;;;;;14.84;100.00;102208.63;5017937;28;20151;-69
2021/08/28 02:31:49;;;;;;;14.90;5.85;;;;;;;14.82;100.00;102205.09;5019222;28;20079;-69
2021/08/28 02:34:19;;;;;;;17.17;6.07;;;;;;;14.82;100.00;102207.78;5021270;28;20452;-68
2021/08/28 02:36:49;;;;;;;15.43;6.72;;;;;;;14.80;100.00;102209.63;5016865;28;20057;-68
2021/08/28 02:39:19;;;;;;;13.30;5.65;;;;;;;14.77;100.00;102214.22;5020041;28;20281;-68
2021/08/28 02:41:48;;;;;;;12.88;5.35;;;;;;;14.72;100.00;102208.97;5022323;28;20107;-68
2021/08/28 02:44:17;;;;;;;23.25;6.82;;;;;;;14.70;100.00;102210.81;5019043;28;20119;-68
2021/08/28 02:46:46;;;;;;;18.38;6.05;;;;;;;14.68;100.00;102204.63;5021552;28;20504;-68
2021/08/28 02:49:17;;;;;;;16.95;5.72;;;;;;;14.67;100.00;102205.53;5020391;28;20065;-68
2021/08/28 02:51:46;;;;;;;14.20;5.28;;;;;;;14.68;100.00;102204.63;5020345;28;20061;-68
2021/08/28 02:54:18;;;;;;;14.07;4.93;;;;;;;14.71;100.00;102205.41;5022470;28;20075;-68
2021/08/28 02:56:49;;;;;;;14.57;5.57;;;;;;;14.67;100.00;102201.03;5021583;28;20061;-68
2021/08/28 02:59:18;;;;;;;11.18;4.82;;;;;;;14.66;100.00;102203.75;5019343;28;20069;-68
2021/08/28 03:01:46;;;;;;;13.05;5.38;;;;;;;14.69;100.00;102201.91;5020682;28;20061;-68
2021/08/28 03:04:18;;;;;;;13.73;5.28;;;;;;;14.68;100.00;102202.81;5019419;28;20072;-68
2021/08/28 03:06:47;;;;;;;17.40;4.85;;;;;;;14.70;100.00;102200.94;5020005;28;20301;-68
2021/08/28 03:09:18;;;;;;;17.52;5.60;;;;;;;14.75;100.00;102190.09;5017299;28;20462;-68
2021/08/28 03:11:47;;;;;;;11.43;5.20;;;;;;;14.69;100.00;102188.47;5018761;28;20061;-66
2021/08/28 03:14:15;;;;;;;11.95;5.55;;;;;;;14.77;99.88;102188.22;5019700;28;20298;-66
2021/08/28 03:16:46;;;;;;;11.77;4.75;;;;;;;14.74;99.63;102193.69;5020492;28;20448;-66
2021/08/28 03:19:16;;;;;;;14.32;4.88;;;;;;;14.70;100.00;102189.34;5022264;28;20061;-66
2021/08/28 03:21:43;;;;;;;12.60;5.47;;;;;;;14.73;99.89;102183.88;5018655;28;20111;-68
2021/08/28 03:24:12;;;;;;;14.13;4.97;;;;;;;14.67;99.59;102190.28;5020959;28;20069;-68
2021/08/28 03:26:47;;;;;;;15.88;4.97;;;;;;;14.64;99.63;102182.34;5021673;28;20065;-69
2021/08/28 03:29:16;;;;;;;11.30;4.15;;;;;;;14.60;99.47;102188.69;5018194;28;20072;-69
2021/08/28 03:31:44;;;;;;;17.17;4.53;;;;;;;14.57;99.63;102186.97;5019372;28;20053;-69
2021/08/28 03:34:14;;;;;;;12.68;4.45;;;;;;;14.54;99.30;102192.41;5020057;28;20332;-69
2021/08/28 03:36:43;;;;;;;13.05;4.68;;;;;;;14.49;99.63;102186.28;5020841;28;20444;-70
2021/08/28 03:39:11;;;;;;;15.50;4.45;;;;;;;14.47;99.54;102195.28;5023318;28;20065;-68
2021/08/28 03:41:39;;;;;;;9.48;4.43;;;;;;;14.44;99.79;102185.53;5020226;28;20053;-68
2021/08/28 03:44:13;;;;;;;11.38;5.00;;;;;;;14.41;100.00;102185.59;5023474;28;20118;-68
2021/08/28 03:46:42;;;;;;;10.05;4.68;;;;;;;14.39;100.00;102195.50;5019856;28;20072;-67
2021/08/28 03:49:10;;;;;;;11.75;4.18;;;;;;;14.37;100.00;102197.34;5019652;28;20062;-67
2021/08/28 03:51:38;;;;;;;11.30;4.22;;;;;;;14.40;100.00;102191.88;5020365;28;20476;-68
2021/08/28 03:54:06;;;;;;;9.98;3.67;;;;;;;14.43;100.00;102193.63;5019679;28;20092;-67
2021/08/28 03:56:34;;;;;;;10.55;4.55;;;;;;;14.41;100.00;102196.34;5016878;28;20111;-68
2021/08/28 03:59:02;;;;;;;12.23;4.43;;;;;;;14.47;100.00;102197.97;5020005;28;20070;-68
2021/08/28 04:01:31;;;;;;;10.18;4.20;;;;;;;14.44;100.00;102198.03;5019201;28;20081;-68
2021/08/28 04:04:01;;;;;;;10.35;4.13;;;;;;;14.46;100.00;102196.22;5017544;28;20080;-68
2021/08/28 04:06:28;;;;;;;8.63;4.00;;;;;;;14.60;100.00;102187.81;5014781;28;20233;-68
2021/08/28 04:08:56;;;;;;;14.43;4.85;;;;;;;14.60;100.00;102188.69;5020282;28;20065;-68
2021/08/28 04:11:27;;;;;;;10.75;4.63;;;;;;;14.59;100.00;102189.59;5014726;28;20109;-68
2021/08/28 04:13:55;;;;;;;14.63;4.68;;;;;;;14.70;100.00;102200.94;5018307;28;20182;-68
2021/08/28 04:16:23;;;;;;;11.90;4.72;;;;;;;14.68;100.00;102202.81;5017977;28;20097;-68
2021/08/28 04:18:52;;;;;;;13.00;5.30;;;;;;;14.66;100.00;102193.91;5017608;28;20143;-68
2021/08/28 04:21:20;;;;;;;10.48;4.63;;;;;;;14.70;100.00;102192.00;5019728;28;20511;-68
2021/08/28 04:23:48;;;;;;;14.52;5.20;;;;;;;14.71;100.00;102194.66;5016612;28;20069;-69
2021/08/28 04:26:16;;;;;;;18.17;5.53;;;;;;;14.76;100.00;102191.81;5020779;28;20087;-69
2021/08/28 04:28:44;;;;;;;12.13;5.38;;;;;;;14.75;100.00;102190.09;5017386;28;20096;-68
2021/08/28 04:31:12;;;;;;;15.40;5.63;;;;;;;14.80;100.00;102189.97;5020557;28;20159;-68
2021/08/28 04:33:43;;;;;;;15.60;5.07;;;;;;;14.84;100.00;102192.50;5016417;28;20065;-68
2021/08/28 04:36:12;;;;;;;15.57;5.90;;;;;;;14.83;100.00;102195.22;5016398;28;20093;-68
2021/08/28 04:38:40;;;;;;;10.70;5.13;;;;;;;14.84;100.00;102195.19;5021047;28;20368;-68
2021/08/28 04:41:08;;;;;;;13.73;5.18;;;;;;;14.81;100.00;102200.63;5015612;28;20122;-69
2021/08/28 04:43:36;;;;;;;13.73;5.25;;;;;;;14.83;100.00;102206.88;5016758;28;20597;-69
2021/08/28 04:46:03;;;;;;;15.13;6.30;;;;;;;14.85;100.00;102199.66;5015989;28;20174;-69
2021/08/28 04:48:32;;;;;;;8.52;4.18;;;;;;;14.79;100.00;102205.19;5014488;28;20072;-69
2021/08/28 04:51:00;;;;;;;14.38;5.20;;;;;;;14.80;100.00;102201.59;5013691;28;20495;-69
2021/08/28 04:53:29;;;;;;;11.30;5.32;;;;;;;14.80;100.00;102204.28;5017422;28;20108;-69
2021/08/28 04:55:57;;;;;;;15.18;5.60;;;;;;;14.82;100.00;102207.78;5018665;28;20061;-69
2021/08/28 04:58:24;;;;;;;10.82;4.97;;;;;;;14.82;100.00;102207.78;5014924;28;20065;-69
2021/08/28 05:00:52;;;;;;;13.82;4.97;;;;;;;14.89;100.00;102208.50;5020154;28;20120;-69
2021/08/28 05:03:20;;;;;;;11.32;5.07;;;;;;;14.87;100.00;102211.22;5016818;28;20454;-69
2021/08/28 05:05:48;;;;;;;12.60;4.53;;;;;;;14.85;100.00;102217.59;5017808;28;20304;-69
2021/08/28 05:08:16;;;;;;;14.25;5.78;;;;;;;14.80;100.00;102216.84;5017656;28;20158;-69
2021/08/28 05:10:45;;;;;;;14.85;5.20;;;;;;;14.78;100.00;102219.56;5016755;28;20061;-68
2021/08/28 05:13:13;;;;;;;12.02;4.68;;;;;;;14.79;100.00;102215.06;5016187;28;20224;-68
2021/08/28 05:15:41;;;;;;;11.52;5.10;;;;;;;14.77;100.00;102219.59;5018770;28;20049;-68
2021/08/28 05:18:09;;;;;;;13.40;5.20;;;;;;;14.75;100.00;102225.88;5018641;28;20420;-68
2021/08/28 05:20:36;;;;;;;13.82;4.88;;;;;;;14.75;100.00;102222.31;5016954;28;20065;-68
2021/08/28 05:23:06;;;;;;;12.27;4.90;;;;;;;14.72;100.00;102225.09;5016650;28;20371;-69
2021/08/28 05:25:33;;;;;;;10.20;4.20;;;;;;;14.70;100.00;102219.75;5015521;28;20061;-69
2021/08/28 05:28:02;;;;;;;12.63;5.22;;;;;;;14.73;100.00;102225.06;5018312;28;20070;-69
2021/08/28 05:30:34;;;;;;;15.57;5.47;;;;;;;14.76;100.00;102226.75;5014015;28;20445;-69
2021/08/28 05:33:02;;;;;;;13.57;5.25;;;;;;;14.80;100.00;102231.13;5022278;28;20118;-70
2021/08/28 05:35:30;;;;;;;15.77;5.43;;;;;;;14.79;100.00;102233.88;5013581;28;20072;-70
2021/08/28 05:37:58;;;;;;;18.63;6.10;;;;;;;14.81;100.00;102227.50;5016899;28;20174;-69
2021/08/28 05:40:26;;;;;;;14.48;5.45;;;;;;;14.81;100.00;102224.81;5016029;28;20110;-70
2021/08/28 05:42:53;;;;;;;13.07;4.90;;;;;;;14.83;100.00;102231.06;5017926;28;20076;-69
2021/08/28 05:45:23;;;;;;;12.43;4.70;;;;;;;14.89;100.00;102232.69;5018268;28;20061;-69
2021/08/28 05:47:51;;;;;;;12.52;4.65;;;;;;;14.90;100.00;102229.97;5016731;28;20049;-69
2021/08/28 05:50:19;;;;;;;12.68;5.00;;;;;;;14.88;100.00;102231.81;5014691;28;20305;-69
2021/08/28 05:52:47;;;;;;;16.60;4.88;;;;;;;14.90;100.00;102229.97;5018532;28;20061;-69
2021/08/28 05:55:14;;;;;;;11.45;4.50;;;;;;;14.93;100.00;102231.66;5015110;28;21213;-69
2021/08/28 05:57:43;;;;;;;10.55;4.80;;;;;;;14.98;100.00;102232.41;5019680;28;20160;-69
2021/08/28 06:00:12;;;;;;;12.75;4.50;;;;;;;14.95;100.00;102232.53;5016212;28;20046;-69
2021/08/28 06:02:41;;;;;;;9.50;4.20;;;;;;;14.96;100.00;102236.09;5018061;28;20057;-69
2021/08/28 06:05:11;;;;;;;11.00;5.15;;;;;;;14.98;99.75;102242.28;5018458;28;20356;-69
2021/08/28 06:07:39;;;;;;;10.43;5.03;;;;;;;15.08;99.46;102235.72;5019539;28;20073;-69
2021/08/28 06:10:08;;;;;;;13.27;4.47;;;;;;;15.04;99.64;102244.81;5012426;28;20061;-70
2021/08/28 06:12:37;;;;;;;11.15;4.90;;;;;;;15.02;100.00;102241.28;5015675;28;21144;-69
2021/08/28 06:15:06;;;;;;;11.05;4.45;;;;;;;15.10;99.27;102240.16;5018417;28;20111;-69
2021/08/28 06:17:34;;;;;;;12.80;4.68;;;;;;;15.13;99.55;102237.34;5017476;28;20105;-69
2021/08/28 06:20:05;;;;;;;9.27;4.10;;;;;;;15.19;99.64;102249.75;5017081;28;20123;-71
2021/08/28 06:22:33;;;;;;;14.63;4.85;;;;;;;15.29;99.17;102248.56;5015797;28;20042;-69
2021/08/28 06:25:00;;;;;;;14.13;5.47;;;;;;;15.53;98.40;102248.75;5017187;28;20057;-69
2021/08/28 06:27:28;;;;;;;16.25;4.72;;;;;;;15.98;96.77;102239.28;5017168;28;20145;-69
2021/08/28 06:29:56;;;;;;;12.10;5.00;;;;;;;16.33;95.83;102258.78;5015831;28;20073;-69
2021/08/28 06:32:23;;;;;;;13.43;5.07;;;;;;;16.33;95.11;102243.50;5017509;28;20065;-69
2021/08/28 06:34:51;;;;;;;14.27;4.93;;;;;;;16.64;94.37;102249.66;5018364;28;20068;-69
2021/08/28 06:37:20;;;;;;;10.95;4.35;;;;;;;16.83;93.03;102242.66;5014941;28;20070;-69
2021/08/28 06:39:48;;;;;;;14.05;4.70;;;;;;;17.32;91.10;102245.41;5016068;28;20069;-69
2021/08/28 06:42:16;;;;;;;13.48;5.47;;;;;;;17.49;90.79;102256.41;5013991;28;20127;-69
2021/08/28 06:44:44;;;;;;;12.27;5.22;;;;;;;17.67;87.51;102245.81;5018309;28;20065;-70
2021/08/28 06:47:12;;;;;;;12.57;4.47;;;;;;;17.44;88.81;102244.91;5019852;28;20594;-70
2021/08/28 06:49:40;;;;;;;15.38;5.43;;;;;;;17.76;87.59;102248.19;5022213;28;20111;-68
2021/08/28 06:52:08;;;;;;;11.63;4.63;;;;;;;18.07;86.57;102244.25;5018096;28;20344;-68
2021/08/28 06:54:37;;;;;;;9.80;4.68;;;;;;;18.10;85.34;102247.72;5018673;28;20085;-68
2021/08/28 06:57:05;;;;;;;14.98;4.68;;;;;;;18.32;83.79;102245.91;5021073;28;20473;-67
2021/08/28 06:59:33;;;;;;;11.13;4.25;;;;;;;17.95;84.45;102242.06;5020330;28;20127;-68
2021/08/28 07:02:01;;;;;;;12.10;4.65;;;;;;;17.88;85.20;102247.72;5021207;28;20074;-67
2021/08/28 07:04:29;;;;;;;13.40;4.35;;;;;;;17.66;86.17;102244.09;5020511;28;20100;-67
2021/08/28 07:06:57;;;;;;;8.98;4.50;;;;;;;17.51;86.68;102249.13;5018639;28;20057;-67
2021/08/28 07:09:24;;;;;;;11.80;4.57;;;;;;;17.46;86.96;102248.44;5020165;28;20101;-69
2021/08/28 07:11:53;;;;;;;9.25;4.60;;;;;;;17.50;86.25;102249.19;5021343;28;20237;-68
2021/08/28 07:14:21;;;;;;;11.20;4.65;;;;;;;17.40;86.68;102254.09;5020130;28;20123;-68
2021/08/28 07:16:49;;;;;;;12.45;4.05;;;;;;;17.36;86.59;102252.41;5021385;28;20056;-67
2021/08/28 07:19:17;;;;;;;13.73;4.35;;;;;;;17.30;87.39;102241.88;5019649;28;20235;-67
2021/08/28 07:21:45;;;;;;;9.93;3.88;;;;;;;17.28;86.80;102244.63;5016980;28;20069;-68
2021/08/28 07:24:13;;;;;;;12.35;4.05;;;;;;;17.33;86.29;102245.34;5018294;28;20077;-68
2021/08/28 07:26:41;;;;;;;16.48;4.95;;;;;;;17.45;86.75;102261.97;5021532;28;20041;-68
2021/08/28 07:29:10;;;;;;;10.77;4.50;;;;;;;17.57;86.52;102260.63;5021830;28;20156;-67
2021/08/28 07:31:38;;;;;;;12.63;4.25;;;;;;;17.64;85.69;102254.03;5020207;28;20080;-66
2021/08/28 07:34:06;;;;;;;10.43;4.63;;;;;;;17.60;86.04;102253.28;5020715;28;20508;-67
2021/08/28 07:36:33;;;;;;;13.43;4.68;;;;;;;17.59;86.12;102251.53;5017568;28;20103;-67
2021/08/28 07:39:02;;;;;;;15.35;5.22;;;;;;;17.67;86.59;102257.53;5018890;28;20062;-68
2021/08/28 07:41:31;;;;;;;14.85;5.43;;;;;;;17.62;86.80;102247.81;5020527;28;20096;-68
2021/08/28 07:43:59;;;;;;;13.43;4.72;;;;;;;17.74;86.15;102252.72;5017219;28;20065;-68
2021/08/28 07:46:28;;;;;;;12.05;4.53;;;;;;;17.72;86.55;102258.22;5017636;28;20069;-68
2021/08/28 07:48:56;;;;;;;15.50;5.22;;;;;;;17.63;86.55;102249.59;5020393;28;20076;-67
2021/08/28 07:51:23;;;;;;;15.50;4.32;;;;;;;17.65;86.05;102255.81;5016702;28;20077;-66
2021/08/28 07:53:51;;;;;;;12.32;4.72;;;;;;;17.81;84.85;102254.28;5018922;28;20089;-69
2021/08/28 07:56:19;;;;;;;14.48;5.03;;;;;;;17.86;85.11;102263.09;5018351;28;20097;-68
2021/08/28 07:58:47;;;;;;;13.40;5.05;;;;;;;18.06;84.69;102253.28;5020179;28;20421;-67
2021/08/28 08:01:15;;;;;;;20.35;5.35;;;;;;;18.24;83.71;102254.38;5018296;28;20065;-68
2021/08/28 08:03:44;;;;;;;15.05;5.28;;;;;;;18.43;81.95;102251.75;5016527;28;20097;-68
2021/08/28 08:06:12;;;;;;;12.10;4.13;;;;;;;18.52;81.51;102253.19;5017117;28;20065;-68
2021/08/28 08:08:40;;;;;;;13.75;4.88;;;;;;;18.45;80.44;102261.53;5017821;28;20213;-67
2021/08/28 08:11:09;;;;;;;13.55;4.75;;;;;;;18.44;80.25;102261.63;5016125;28;20103;-67
2021/08/28 08:13:37;;;;;;;12.88;4.90;;;;;;;18.97;79.52;102263.81;5015571;28;20238;-68
2021/08/28 08:16:05;;;;;;;12.43;4.85;;;;;;;18.72;78.04;102263.13;5015846;28;20085;-68
2021/08/28 08:18:34;;;;;;;13.57;4.72;;;;;;;18.61;78.46;102267.19;5020639;28;20076;-68
2021/08/28 08:21:04;;;;;;;12.88;5.53;;;;;;;18.76;78.66;102256.63;5016035;28;20203;-68
2021/08/28 08:23:32;;;;;;;13.13;5.43;;;;;;;19.21;77.81;102264.53;5017154;28;20069;-68
2021/08/28 08:26:00;;;;;;;14.85;5.63;;;;;;;19.33;78.00;102271.22;5015590;28;20476;-68
2021/08/28 08:28:27;;;;;;;12.52;4.43;;;;;;;19.51;76.51;102268.59;5017631;28;20057;-68
2021/08/28 08:30:55;;;;;;;10.48;4.00;;;;;;;19.27;74.43;102263.38;5016553;28;20065;-68
2021/08/28 08:33:23;;;;;;;10.63;3.95;;;;;;;19.37;73.92;102261.13;5019953;28;20183;-68
2021/08/28 08:35:51;;;;;;;12.10;4.10;;;;;;;19.47;72.58;102272.41;5023267;28;20504;-68
2021/08/28 08:38:20;;;;;;;10.90;4.30;;;;;;;19.56;71.84;102263.81;5021533;28;20232;-68
2021/08/28 08:40:49;;;;;;;8.32;3.95;;;;;;;19.73;71.93;102268.44;5019662;28;20507;-68
2021/08/28 08:43:17;;;;;;;11.40;4.20;;;;;;;19.54;72.47;102272.00;5018311;28;20077;-68
2021/08/28 08:45:46;;;;;;;14.32;4.70;;;;;;;19.08;73.06;102270.56;5026548;28;20064;-68
2021/08/28 08:48:14;;;;;;;12.35;4.32;;;;;;;19.06;73.65;102281.47;5019239;28;20062;-67
2021/08/28 08:50:44;;;;;;;11.15;4.22;;;;;;;18.87;74.43;102276.00;5021746;28;20072;-68
2021/08/28 08:53:18;;;;;;;10.38;4.70;;;;;;;18.75;73.52;102284.63;5015126;28;20061;-68
2021/08/28 08:55:49;;;;;;;11.57;4.53;;;;;;;18.58;74.55;102283.53;5013114;28;20115;-67
2021/08/28 08:58:18;;;;;;;9.43;4.38;;;;;;;18.66;72.46;102278.66;5018857;28;20065;-68
2021/08/28 09:00:46;;;;;;;8.95;4.85;;;;;;;18.66;72.92;102283.19;5016085;28;20076;-68
2021/08/28 09:03:15;;;;;;;9.07;4.40;;;;;;;18.71;72.94;102285.69;5015661;28;20458;-67
2021/08/28 09:05:43;;;;;;;9.00;3.83;;;;;;;18.88;72.34;102279.56;5017481;28;20076;-68
2021/08/28 09:08:11;;;;;;;12.43;4.97;;;;;;;19.32;71.76;102277.56;5016517;28;20064;-69
2021/08/28 09:10:39;;;;;;;11.13;4.45;;;;;;;19.25;71.31;102276.09;5017332;28;20186;-69
2021/08/28 09:13:18;;;;;;;9.52;4.00;;;;;;;19.51;71.11;102277.59;5013057;28;20941;-69
2021/08/28 09:15:48;;;;;;;8.48;4.00;;;;;;;19.48;71.54;102279.53;5018041;28;20071;-69
2021/08/28 09:18:30;;;;;;;11.35;4.88;;;;;;;19.51;70.30;102288.44;5017021;28;20065;-69
2021/08/28 09:20:58;;;;;;;9.75;4.10;;;;;;;19.51;70.32;102285.72;5017207;28;20068;-69
2021/08/28 09:23:26;;;;;;;11.57;4.65;;;;;;;19.57;70.60;102285.41;5016753;28;20065;-69
2021/08/28 09:25:54;;;;;;;10.07;4.70;;;;;;;19.69;71.02;102283.09;5014612;28;20103;-70
2021/08/28 09:28:35;;;;;;;15.55;4.90;;;;;;;19.72;70.84;102285.66;5014455;28;20422;-69
2021/08/28 09:31:03;;;;;;;11.15;4.75;;;;;;;19.99;70.91;102285.28;5014923;28;20068;-69
2021/08/28 09:33:35;;;;;;;9.75;4.45;;;;;;;19.81;70.38;102290.66;5015707;28;20076;-69
2021/08/28 09:36:03;;;;;;;11.82;4.32;;;;;;;19.62;70.33;102276.22;5016656;28;20084;-68
2021/08/28 09:38:38;;;;;;;11.57;4.80;;;;;;;19.42;70.09;102289.72;5014932;28;20169;-68
2021/08/28 09:41:07;;;;;;;7.57;3.90;;;;;;;19.34;70.36;102283.81;5014779;28;20304;-68
2021/08/28 09:43:36;;;;;;;10.55;5.40;;;;;;;20.07;68.94;102285.78;5014893;28;20140;-68
2021/08/28 09:46:09;;;;;;;13.57;5.50;;;;;;;20.29;68.16;102291.03;5015120;28;20119;-69
2021/08/28 09:48:39;;;;;;;;;;;;;;;19.97;68.55;102293.47;5015348;28;20069;-68
2021/08/28 09:51:11;;;;;;;12.15;4.82;;;;;;;19.83;70.90;102291.44;5011866;28;20019;-69
2021/08/28 09:53:43;;;;;;;11.30;5.47;;;;;;;19.68;71.21;102282.22;5016213;28;20073;-69
2021/08/28 09:56:11;;;;;;;10.77;4.90;;;;;;;19.69;69.83;102283.09;5017426;28;20066;-69
2021/08/28 09:58:41;;;;;;;8.98;4.35;;;;;;;19.64;68.32;102302.25;5015384;28;20498;-69
2021/08/28 10:01:09;;;;;;;10.73;4.78;;;;;;;20.39;67.54;102291.44;5012920;28;20115;-69
2021/08/28 10:03:37;;;;;;;8.88;4.18;;;;;;;21.00;64.85;102284.69;5013898;28;20053;-69
2021/08/28 10:06:06;;;;;;;11.68;4.70;;;;;;;20.89;64.57;102277.09;5014177;28;20062;-69
2021/08/28 10:08:33;;;;;;;13.27;4.90;;;;;;;20.37;65.29;102287.94;5017270;28;20112;-69
2021/08/28 10:11:02;;;;;;;12.80;5.10;;;;;;;19.87;66.51;102292.19;5011066;28;20068;-69
2021/08/28 10:13:33;;;;;;;14.00;6.30;;;;;;;19.59;69.74;102301.59;5014265;28;20069;-70
2021/08/28 10:16:04;;;;;;;13.25;5.25;;;;;;;19.69;69.90;102300.19;5014056;28;20100;-69
2021/08/28 10:18:34;;;;;;;10.82;5.25;;;;;;;19.51;69.92;102299.25;5018367;28;20148;-69
2021/08/28 10:21:03;;;;;;;13.95;5.25;;;;;;;19.66;69.80;102300.34;5019180;28;20156;-69
2021/08/28 10:23:37;;;;;;;12.10;5.43;;;;;;;19.77;69.53;102297.19;5018413;28;20155;-69
2021/08/28 10:26:05;;;;;;;13.10;4.88;;;;;;;20.20;68.53;102291.50;5017751;28;20357;-69
2021/08/28 10:28:33;;;;;;;11.40;5.20;;;;;;;21.37;64.00;102291.72;5019384;28;20155;-69
2021/08/28 10:31:04;;;;;;;10.68;4.57;;;;;;;21.39;63.74;102287.09;5016942;28;20124;-68
2021/08/28 10:33:32;;;;;;;11.88;4.68;;;;;;;21.32;62.25;102282.97;5020144;28;20065;-72
2021/08/28 10:36:00;;;;;;;9.40;4.55;;;;;;;21.25;62.44;102285.13;5017602;28;20068;-71
2021/08/28 10:38:29;;;;;;;10.93;5.35;;;;;;;21.36;61.57;102289.97;5019616;28;20107;-71
2021/08/28 10:40:58;;;;;;;10.35;4.93;;;;;;;21.26;60.48;102281.44;5017987;28;20373;-71
2021/08/28 10:43:27;;;;;;;11.98;4.70;;;;;;;22.05;59.22;102292.50;5015319;28;20415;-71
2021/08/28 10:45:55;;;;;;;8.60;4.32;;;;;;;22.49;57.93;102289.03;5021086;28;20087;-71
2021/08/28 10:48:24;;;;;;;10.45;4.53;;;;;;;22.65;56.85;102291.75;5017188;28;20068;-72
2021/08/28 10:50:53;;;;;;;14.88;5.40;;;;;;;22.72;57.60;102287.69;5019432;28;20062;-71
2021/08/28 10:53:24;;;;;;;9.70;4.90;;;;;;;21.84;56.71;102287.34;5017116;28;20067;-72
2021/08/28 10:55:52;;;;;;;9.68;4.35;;;;;;;21.56;57.52;102296.19;5017855;28;20163;-74
2021/08/28 10:58:22;;;;;;;11.73;4.57;;;;;;;21.20;58.67;102283.63;5020563;28;20462;-72
2021/08/28 11:00:52;;;;;;;9.77;4.25;;;;;;;21.17;58.39;102286.50;5017620;28;20630;-72
2021/08/28 11:03:27;;;;;;;9.85;4.40;;;;;;;21.80;58.38;102293.91;5017437;28;20049;-73
2021/08/28 11:06:21;;;;;;;11.90;4.60;;;;;;;22.25;55.38;102294.06;5014810;28;20414;-72
2021/08/28 11:08:52;;;;;;;9.13;4.25;;;;;;;22.41;54.81;102286.81;5018312;28;20415;-71
2021/08/28 11:11:23;;;;;;;8.32;4.28;;;;;;;21.80;55.75;102302.06;5018777;28;20368;-68
2021/08/28 11:13:57;;;;;;;10.05;3.78;;;;;;;21.34;55.26;102296.44;5016983;28;20056;-70
2021/08/28 11:16:58;;;;;;;9.02;4.47;;;;;;;21.33;57.03;102297.41;5019262;28;20084;-69
2021/08/28 11:19:38;;;;;;;11.25;4.60;;;;;;;21.10;57.17;102293.22;4994064;28;20108;-69
2021/08/28 11:22:21;;;;;;;9.88;4.10;;;;;;;21.26;58.16;102300.44;4992949;28;20068;-71
2021/08/28 11:24:57;;;;;;;10.23;4.30;;;;;;;21.19;57.75;102284.59;4992024;28;20800;-69